Time;durP1;ratioP1;P1;durP2;ratioP2;P2;SDS_P1;SDS_P2;PMS_P1;PMS_P2;Temp;Humidity;BMP_temperature;BMP_pressure;BME280_temperature;BME280_humidity;BME280_pressure;Samples;Min_cycle;Max_cycle;Signal;HPM_P1;HPM_P2
2023/12/01 00:00:41;;;;;;;0.50;0.50;;;;;;;-1.29;100.00;100265.31;5112764;28;20017;-48
2023/12/01 00:03:07;;;;;;;0.60;0.60;;;;;;;-1.27;100.00;100273.91;5113196;28;20027;-47
2023/12/01 00:05:32;;;;;;;0.50;0.50;;;;;;;-1.30;100.00;100273.66;5112761;28;20027;-48
2023/12/01 00:07:57;;;;;;;0.50;0.50;;;;;;;-1.31;100.00;100277.00;5112731;28;20081;-49
2023/12/01 00:10:23;;;;;;;0.50;0.50;;;;;;;-1.34;100.00;100281.06;5112819;28;20501;-49
2023/12/01 00:12:48;;;;;;;0.50;0.50;;;;;;;-1.36;100.00;100282.59;5112915;28;20047;-49
2023/12/01 00:15:14;;;;;;;0.45;0.45;;;;;;;-1.37;100.00;100278.34;5112725;28;20019;-48
2023/12/01 00:17:39;;;;;;;0.50;0.50;;;;;;;-1.36;100.00;100280.06;5117436;28;20025;-47
2023/12/01 00:20:05;;;;;;;0.50;0.50;;;;;;;-1.37;100.00;100277.44;5116601;28;20069;-47
2023/12/01 00:22:30;;;;;;;0.50;0.50;;;;;;;-1.39;100.00;100279.88;5116901;28;20099;-47
2023/12/01 00:24:55;;;;;;;0.50;0.50;;;;;;;-1.42;100.00;100287.25;5117407;28;20495;-47
2023/12/01 00:27:21;;;;;;;0.50;0.50;;;;;;;-1.42;100.00;100289.78;5116299;28;20020;-47
2023/12/01 00:29:46;;;;;;;0.50;0.50;;;;;;;-1.42;100.00;100284.72;5117290;28;20468;-49
2023/12/01 00:32:11;;;;;;;0.50;0.50;;;;;;;-1.45;100.00;100289.56;5116852;28;20023;-49
2023/12/01 00:34:36;;;;;;;0.60;0.60;;;;;;;-1.45;100.00;100288.69;5116251;28;20086;-47
2023/12/01 00:37:02;;;;;;;0.60;0.60;;;;;;;-1.46;100.00;100290.31;5117144;28;20118;-49
2023/12/01 00:39:28;;;;;;;0.55;0.55;;;;;;;-1.47;100.00;100293.66;5116537;28;20027;-48
2023/12/01 00:41:53;;;;;;;0.57;0.57;;;;;;;-1.46;100.00;100290.31;5116355;28;20023;-49
2023/12/01 00:44:18;;;;;;;0.50;0.50;;;;;;;-1.49;100.00;100290.97;5116415;28;20080;-46
2023/12/01 00:46:43;;;;;;;0.60;0.60;;;;;;;-1.46;100.00;100291.97;5116606;28;20047;-46
2023/12/01 00:49:10;;;;;;;0.40;0.40;;;;;;;-1.44;100.00;100296.38;5116052;28;20016;-46
2023/12/01 00:51:35;;;;;;;0.60;0.60;;;;;;;-1.44;100.00;100296.38;5116666;28;20386;-49
2023/12/01 00:54:00;;;;;;;0.60;0.60;;;;;;;-1.46;100.00;100299.56;5116327;28;20031;-46
2023/12/01 00:56:26;;;;;;;0.50;0.50;;;;;;;-1.45;100.00;100294.59;5115854;28;20035;-50
2023/12/01 00:58:51;;;;;;;0.50;0.50;;;;;;;-1.42;100.00;100310.00;5116712;28;20023;-46
2023/12/01 01:01:17;;;;;;;0.50;0.50;;;;;;;-1.42;100.00;100310.00;5116086;28;20412;-46
2023/12/01 01:03:43;;;;;;;0.50;0.50;;;;;;;-1.40;100.00;100310.97;5115956;28;20030;-50
2023/12/01 01:06:08;;;;;;;0.60;0.60;;;;;;;-1.39;100.00;100315.25;5116548;28;20024;-46
2023/12/01 01:08:34;;;;;;;0.40;0.40;;;;;;;-1.38;100.00;100311.97;5115884;28;20022;-49
2023/12/01 01:10:59;;;;;;;0.60;0.60;;;;;;;-1.38;100.00;100309.44;5115837;28;20035;-47
2023/12/01 01:13:26;;;;;;;0.40;0.40;;;;;;;-1.42;100.00;100322.66;5109508;28;20028;-48
2023/12/01 01:15:52;;;;;;;0.50;0.50;;;;;;;-1.42;100.00;100321.75;5095726;28;20035;-46
2023/12/01 01:18:17;;;;;;;0.60;0.60;;;;;;;-1.49;100.00;100318.78;5094966;28;20028;-48
2023/12/01 01:20:42;;;;;;;0.50;0.50;;;;;;;-1.52;100.00;100327.84;5095638;28;20073;-48
2023/12/01 01:23:08;;;;;;;0.50;0.50;;;;;;;-1.56;100.00;100330.88;5095231;28;20055;-45
2023/12/01 01:25:33;;;;;;;0.50;0.50;;;;;;;-1.57;100.00;100317.38;5095233;28;20026;-47
2023/12/01 01:27:59;;;;;;;0.60;0.60;;;;;;;-1.59;100.00;100323.09;5094610;28;20396;-46
2023/12/01 01:30:25;;;;;;;0.50;0.50;;;;;;;-1.62;100.00;100318.72;5094822;28;20357;-46
2023/12/01 01:32:50;;;;;;;0.40;0.40;;;;;;;-1.61;100.00;100327.16;5095654;28;20028;-44
2023/12/01 01:35:16;;;;;;;0.50;0.50;;;;;;;-1.63;100.00;100328.72;5095298;28;20035;-45
2023/12/01 01:37:41;;;;;;;0.50;0.50;;;;;;;-1.64;100.00;100329.50;5094664;28;20111;-47
2023/12/01 01:40:11;;;;;;;0.50;0.50;;;;;;;-1.68;100.00;100326.75;5095337;28;20028;-48
2023/12/01 01:42:37;;;;;;;0.50;0.50;;;;;;;-1.68;100.00;100325.88;5095484;28;20024;-45
2023/12/01 01:45:03;;;;;;;0.50;0.50;;;;;;;-1.72;100.00;100334.88;5094363;28;20380;-49
2023/12/01 01:47:29;;;;;;;0.40;0.40;;;;;;;-1.72;100.00;100331.47;5095020;28;20085;-44
2023/12/01 01:49:54;;;;;;;0.50;0.50;;;;;;;-1.76;100.00;100337.09;5095307;28;20027;-46
2023/12/01 01:52:21;;;;;;;0.60;0.60;;;;;;;-1.79;100.00;100344.47;5093965;28;20024;-46
2023/12/01 01:54:46;;;;;;;0.40;0.40;;;;;;;-1.79;100.00;100342.81;5095260;28;20028;-48
2023/12/01 01:57:12;;;;;;;0.50;0.50;;;;;;;-1.80;100.00;100341.03;5094553;28;20119;-47
2023/12/01 01:59:37;;;;;;;0.60;0.60;;;;;;;-1.82;100.00;100348.53;5094619;28;20028;-46
2023/12/01 02:02:02;;;;;;;0.60;0.60;;;;;;;-1.83;100.00;100351.81;5095021;28;20548;-50
2023/12/01 02:04:28;;;;;;;0.60;0.60;;;;;;;-1.83;100.00;100350.94;5094436;28;20410;-48
2023/12/01 02:06:53;;;;;;;0.60;0.60;;;;;;;-1.84;100.00;100357.63;5094389;28;20030;-46
2023/12/01 02:09:18;;;;;;;0.60;0.60;;;;;;;-1.88;100.00;100348.06;5094782;28;20028;-45
2023/12/01 02:11:44;;;;;;;0.52;0.52;;;;;;;-1.91;100.00;100360.50;5094633;28;20040;-46
2023/12/01 02:14:09;;;;;;;0.57;0.57;;;;;;;-1.90;100.00;100361.38;5094314;28;20424;-48
2023/12/01 02:16:35;;;;;;;0.60;0.60;;;;;;;-1.93;100.00;100364.56;5094617;28;20043;-49
2023/12/01 02:19:00;;;;;;;0.50;0.50;;;;;;;-1.92;100.00;100367.97;5094397;28;20024;-49
2023/12/01 02:21:33;;;;;;;0.50;0.50;;;;;;;-1.93;100.00;100362.03;5093656;28;20161;-50
2023/12/01 02:23:59;;;;;;;0.60;0.60;;;;;;;-1.89;100.00;100355.56;5094828;28;20062;-49
2023/12/01 02:26:24;;;;;;;0.50;0.50;;;;;;;-1.89;100.00;100355.56;5094158;28;20024;-49
2023/12/01 02:28:50;;;;;;;0.60;0.60;;;;;;;-1.91;100.00;100359.59;5093801;28;20027;-50
2023/12/01 02:31:15;;;;;;;0.45;0.45;;;;;;;-1.92;100.00;100358.75;5094215;28;20024;-49
2023/12/01 02:33:40;;;;;;;0.50;0.50;;;;;;;-1.93;100.00;100368.75;5093546;28;20036;-50
2023/12/01 02:36:08;;;;;;;0.38;0.38;;;;;;;-1.95;100.00;100360.16;5094145;28;20157;-47
2023/12/01 02:38:34;;;;;;;0.50;0.50;;;;;;;-1.94;100.00;100367.84;5093901;28;20149;-49
2023/12/01 02:40:59;;;;;;;0.50;0.50;;;;;;;-1.96;100.00;100363.44;5093601;28;20039;-48
2023/12/01 02:43:24;;;;;;;0.50;0.50;;;;;;;-1.96;100.00;100369.41;5093960;28;20031;-51
2023/12/01 02:45:50;;;;;;;0.50;0.50;;;;;;;-1.95;100.00;100371.16;5093988;28;20040;-49
2023/12/01 02:48:16;;;;;;;0.52;0.52;;;;;;;-1.97;100.00;100361.72;5093129;28;20035;-50
2023/12/01 02:50:42;;;;;;;0.50;0.50;;;;;;;-1.99;100.00;100359.06;5093975;28;20024;-49
2023/12/01 02:53:08;;;;;;;0.50;0.50;;;;;;;-2.02;100.00;100362.22;5093913;28;20043;-47
2023/12/01 02:55:33;;;;;;;0.50;0.50;;;;;;;-2.02;100.00;100354.66;5092973;28;20028;-47
2023/12/01 02:57:59;;;;;;;0.50;0.50;;;;;;;-2.05;100.00;100362.03;5093975;28;20026;-45
2023/12/01 03:00:24;;;;;;;0.57;0.57;;;;;;;-2.04;100.00;100356.22;5093471;28;20032;-47
2023/12/01 03:02:51;;;;;;;0.60;0.60;;;;;;;-2.05;100.00;100369.59;5093350;28;20407;-48
2023/12/01 03:05:16;;;;;;;0.52;0.52;;;;;;;-2.07;100.00;100355.97;5093521;28;20138;-49
2023/12/01 03:07:42;;;;;;;0.60;0.60;;;;;;;-2.04;100.00;100367.94;5093675;28;20063;-47
2023/12/01 03:10:08;;;;;;;0.60;0.60;;;;;;;-2.06;100.00;100367.84;5093353;28;20031;-50
2023/12/01 03:12:37;;;;;;;0.60;0.60;;;;;;;-2.09;100.00;100370.16;5093514;28;20028;-47
2023/12/01 03:15:06;;;;;;;0.60;0.60;;;;;;;-2.07;100.00;100370.25;5093506;28;20028;-49
2023/12/01 03:17:32;;;;;;;0.60;0.60;;;;;;;-2.04;100.00;100360.38;5092551;28;20456;-48
2023/12/01 03:19:58;;;;;;;0.60;0.60;;;;;;;-2.04;100.00;100357.84;5093762;28;20028;-48
2023/12/01 03:22:23;;;;;;;0.60;0.60;;;;;;;-2.00;100.00;100364.91;5093187;28;20032;-47
2023/12/01 03:24:49;;;;;;;0.60;0.60;;;;;;;-1.99;100.00;100361.56;5092928;28;20030;-49
2023/12/01 03:27:15;;;;;;;0.60;0.60;;;;;;;-1.94;100.00;100369.50;5093104;28;20028;-49
2023/12/01 03:29:40;;;;;;;0.50;0.50;;;;;;;-1.99;100.00;100367.53;5092988;28;20023;-46
2023/12/01 03:32:06;;;;;;;0.55;0.55;;;;;;;-1.96;100.00;100369.41;5092869;28;20095;-49
2023/12/01 03:34:31;;;;;;;0.52;0.52;;;;;;;-1.95;100.00;100366.09;5092915;28;20448;-47
2023/12/01 03:36:57;;;;;;;0.68;0.68;;;;;;;-1.93;100.00;100369.59;5092605;28;20065;-48
2023/12/01 03:39:22;;;;;;;0.57;0.57;;;;;;;-1.95;100.00;100370.25;5093072;28;20024;-50
2023/12/01 03:41:48;;;;;;;0.60;0.60;;;;;;;-1.90;100.00;100369.84;5093259;28;20051;-48
2023/12/01 03:44:13;;;;;;;0.70;0.70;;;;;;;-1.89;100.00;100375.75;5092178;28;20027;-49
2023/12/01 03:46:39;;;;;;;0.70;0.70;;;;;;;-1.92;100.00;100378.06;5092910;28;20052;-47
2023/12/01 03:49:04;;;;;;;0.60;0.60;;;;;;;-1.90;100.00;100379.94;5093094;28;20028;-46
2023/12/01 03:51:30;;;;;;;0.60;0.60;;;;;;;-1.89;100.00;100388.38;5091611;28;20028;-47
2023/12/01 03:53:55;;;;;;;0.50;0.50;;;;;;;-1.93;100.00;100386.41;5093170;28;20023;-49
2023/12/01 03:56:21;;;;;;;0.52;0.52;;;;;;;-1.97;100.00;100385.31;5092637;28;20028;-50
2023/12/01 03:58:46;;;;;;;0.60;0.60;;;;;;;-2.02;100.00;100390.00;5092452;28;20024;-46
2023/12/01 04:01:11;;;;;;;0.60;0.60;;;;;;;-2.10;100.00;100395.31;5092677;28;20032;-46
2023/12/01 04:03:37;;;;;;;0.70;0.70;;;;;;;-2.13;100.00;100395.97;5092627;28;20027;-45
2023/12/01 04:06:02;;;;;;;0.50;0.50;;;;;;;-2.19;100.00;100395.50;5092505;28;20022;-46
2023/12/01 04:08:28;;;;;;;0.70;0.70;;;;;;;-2.16;100.00;100395.72;5092517;28;20028;-46
2023/12/01 04:10:53;;;;;;;0.60;0.60;;;;;;;-2.20;100.00;100399.66;5092718;28;20525;-46
2023/12/01 04:13:19;;;;;;;0.50;0.50;;;;;;;-2.21;100.00;100402.97;5092001;28;20020;-47
2023/12/01 04:15:44;;;;;;;0.60;0.60;;;;;;;-2.20;100.00;100404.69;5092610;28;20452;-50
2023/12/01 04:18:11;;;;;;;0.60;0.60;;;;;;;-2.20;100.00;100399.66;5092225;28;20081;-48
2023/12/01 04:20:38;;;;;;;0.50;0.50;;;;;;;-2.18;100.00;100407.38;5092208;28;20471;-51
2023/12/01 04:23:14;;;;;;;0.60;0.60;;;;;;;-2.17;100.00;100411.63;5092857;28;20028;-46
2023/12/01 04:25:46;;;;;;;0.50;0.50;;;;;;;-2.18;100.00;100417.47;5092735;28;20123;-50
2023/12/01 04:28:13;;;;;;;0.60;0.60;;;;;;;-2.15;100.00;100422.72;5091951;28;20028;-46
2023/12/01 04:30:40;;;;;;;0.70;0.70;;;;;;;-2.15;100.00;100423.59;5092606;28;20031;-47
2023/12/01 04:33:05;;;;;;;0.60;0.60;;;;;;;-2.12;100.00;100419.53;5092120;28;20028;-45
2023/12/01 04:35:33;;;;;;;0.60;0.60;;;;;;;-2.10;100.00;100425.59;5092233;28;20081;-46
2023/12/01 04:37:59;;;;;;;;;;;;;;;-1.94;100.00;100427.59;5093250;28;20066;-47
2023/12/01 04:40:27;;;;;;;0.50;0.50;;;;;;;-2.09;100.00;100417.22;5091671;28;20014;-49
2023/12/01 04:42:54;;;;;;;0.65;0.65;;;;;;;-2.12;100.00;100428.00;5092674;28;20024;-48
2023/12/01 04:45:21;;;;;;;;;;;;;;;-1.94;100.00;100427.59;5092745;28;20040;-46
2023/12/01 04:47:51;;;;;;;0.60;0.60;;;;;;;-2.10;100.00;100431.50;5091835;28;19916;-46
2023/12/01 04:50:25;;;;;;;0.60;0.60;;;;;;;-2.07;100.00;100431.72;5092299;28;20020;-45
2023/12/01 04:52:58;;;;;;;0.60;0.60;;;;;;;-2.05;100.00;100450.41;5092306;28;20073;-47
2023/12/01 04:55:28;;;;;;;0.52;0.52;;;;;;;-2.04;100.00;100431.97;5091637;28;20103;-47
2023/12/01 04:57:54;;;;;;;0.60;0.60;;;;;;;-2.04;100.00;100436.13;5092630;28;20161;-45
2023/12/01 05:00:22;;;;;;;0.60;0.60;;;;;;;-2.02;100.00;100438.00;5091914;28;20788;-46
2023/12/01 05:02:52;;;;;;;0.60;0.60;;;;;;;-1.98;100.00;100441.63;5094725;28;20081;-45
2023/12/01 05:05:19;;;;;;;0.50;0.50;;;;;;;-1.98;100.00;100446.69;5095912;28;20020;-46
2023/12/01 05:07:45;;;;;;;0.50;0.50;;;;;;;-1.97;100.00;100448.44;5095852;28;20028;-45
2023/12/01 05:10:14;;;;;;;0.60;0.60;;;;;;;-1.94;100.00;100453.72;5095213;28;20396;-48
2023/12/01 05:12:44;;;;;;;0.60;0.60;;;;;;;-1.93;100.00;100457.13;5096143;28;20020;-48
2023/12/01 05:15:16;;;;;;;0.60;0.60;;;;;;;-1.92;100.00;100451.31;5095479;28;20028;-45
2023/12/01 05:18:02;;;;;;;0.50;0.50;;;;;;;-1.75;100.00;100457.59;5095946;28;20031;-49
2023/12/01 05:20:29;;;;;;;0.50;0.50;;;;;;;-1.88;100.00;100458.34;5095407;28;20107;-47
2023/12/01 05:22:59;;;;;;;0.50;0.50;;;;;;;-1.82;100.00;100468.91;5095262;28;20028;-46
2023/12/01 05:25:25;;;;;;;0.60;0.60;;;;;;;-1.90;100.00;100470.88;5095577;28;20036;-47
2023/12/01 05:27:52;;;;;;;0.50;0.50;;;;;;;-1.88;100.00;100468.44;5095530;28;20066;-49
2023/12/01 05:30:20;;;;;;;0.50;0.50;;;;;;;-1.93;100.00;100465.56;5094747;28;20614;-47
2023/12/01 05:32:50;;;;;;;0.50;0.50;;;;;;;-1.92;100.00;100476.56;5095515;28;20778;-49
2023/12/01 05:35:16;;;;;;;0.50;0.50;;;;;;;-1.93;100.00;100479.88;5094836;28;20066;-50
2023/12/01 05:37:50;;;;;;;0.52;0.52;;;;;;;-1.95;100.00;100474.72;5095127;28;20024;-46
2023/12/01 05:40:22;;;;;;;0.50;0.50;;;;;;;-1.94;100.00;100486.53;5095380;28;20020;-45
2023/12/01 05:42:49;;;;;;;0.57;0.57;;;;;;;-1.94;100.00;100478.09;5095202;28;20047;-46
2023/12/01 05:45:15;;;;;;;0.40;0.40;;;;;;;-1.93;100.00;100479.88;5094370;28;20044;-46
2023/12/01 05:47:43;;;;;;;0.50;0.50;;;;;;;-1.92;100.00;100494.25;5095383;28;20016;-48
2023/12/01 05:50:16;;;;;;;0.60;0.60;;;;;;;-1.90;100.00;100493.59;5095245;28;20097;-46
2023/12/01 05:52:43;;;;;;;0.57;0.57;;;;;;;-1.86;100.00;100493.06;5094841;28;20103;-50
2023/12/01 05:55:16;;;;;;;0.50;0.50;;;;;;;-1.91;100.00;100498.50;5095256;28;20387;-47
2023/12/01 05:57:45;;;;;;;0.50;0.50;;;;;;;-1.89;100.00;100497.00;5094341;28;20024;-49
2023/12/01 06:00:29;;;;;;;0.60;0.60;;;;;;;-1.88;100.00;100499.63;5094684;28;20022;-46
2023/12/01 06:02:55;;;;;;;0.50;0.50;;;;;;;-1.86;100.00;100502.25;5094911;28;20081;-47
2023/12/01 06:05:21;;;;;;;0.70;0.70;;;;;;;-1.86;100.00;100495.59;5094279;28;20024;-49
2023/12/01 06:07:52;;;;;;;0.60;0.60;;;;;;;-1.86;100.00;100498.09;5095168;28;20027;-47
2023/12/01 06:10:18;;;;;;;0.57;0.57;;;;;;;-1.87;100.00;100501.41;5094463;28;20463;-47
2023/12/01 06:12:44;;;;;;;0.60;0.60;;;;;;;-1.73;100.00;100499.88;5094165;28;20024;-47
2023/12/01 06:15:12;;;;;;;0.50;0.50;;;;;;;-1.83;100.00;100497.47;5094187;28;20201;-45
2023/12/01 06:17:39;;;;;;;0.50;0.50;;;;;;;-1.84;100.00;100496.56;5094700;28;20105;-46
2023/12/01 06:20:04;;;;;;;0.50;0.50;;;;;;;-1.85;100.00;100493.94;5094309;28;20039;-49
2023/12/01 06:22:30;;;;;;;0.50;0.50;;;;;;;-1.85;100.00;100504.03;5094503;28;20020;-47
2023/12/01 06:24:56;;;;;;;0.50;0.50;;;;;;;-1.85;100.00;100504.03;5094294;28;20097;-47
2023/12/01 06:27:22;;;;;;;0.60;0.60;;;;;;;-1.82;100.00;100506.81;5093677;28;20035;-48
2023/12/01 06:29:48;;;;;;;0.60;0.60;;;;;;;-1.78;100.00;100506.25;5094445;28;20545;-46
2023/12/01 06:32:15;;;;;;;0.60;0.60;;;;;;;-1.76;100.00;100502.16;5094138;28;20035;-49
2023/12/01 06:34:41;;;;;;;0.60;0.60;;;;;;;-1.63;100.00;100501.41;5093886;28;20387;-46
2023/12/01 06:37:06;;;;;;;0.52;0.52;;;;;;;-1.71;100.00;100503.38;5094267;28;20579;-48
2023/12/01 06:39:31;;;;;;;0.50;0.50;;;;;;;-1.67;100.00;100504.50;5093773;28;20051;-46
2023/12/01 06:41:56;;;;;;;0.50;0.50;;;;;;;-1.63;100.00;100506.47;5093681;28;20032;-49
2023/12/01 06:44:22;;;;;;;0.55;0.55;;;;;;;-1.64;100.00;100499.66;5094131;28;20510;-49
2023/12/01 06:46:48;;;;;;;0.60;0.60;;;;;;;-1.63;100.00;100500.56;5093311;28;20040;-48
2023/12/01 06:49:13;;;;;;;0.60;0.60;;;;;;;-1.61;100.00;100506.56;5093856;28;20476;-49
2023/12/01 06:51:39;;;;;;;0.50;0.50;;;;;;;-1.59;100.00;100500.00;5094112;28;20058;-50
2023/12/01 06:54:04;;;;;;;0.60;0.60;;;;;;;-1.58;100.00;100509.34;5093334;28;20441;-48
2023/12/01 06:56:30;;;;;;;0.50;0.50;;;;;;;-1.56;100.00;100507.78;5093620;28;20031;-50
2023/12/01 06:58:55;;;;;;;0.60;0.60;;;;;;;-1.50;100.00;100510.78;5093829;28;20020;-45
2023/12/01 07:01:20;;;;;;;0.47;0.47;;;;;;;-1.52;100.00;100523.31;5093002;28;20574;-46
2023/12/01 07:03:46;;;;;;;0.50;0.50;;;;;;;-1.44;100.00;100521.34;5093800;28;20024;-47
2023/12/01 07:06:12;;;;;;;0.60;0.60;;;;;;;-1.43;100.00;100525.63;5093354;28;20541;-45
2023/12/01 07:08:38;;;;;;;0.50;0.50;;;;;;;-1.48;100.00;100526.94;5093141;28;20056;-48
2023/12/01 07:11:04;;;;;;;0.50;0.50;;;;;;;-1.49;100.00;100526.03;5093611;28;20100;-46
2023/12/01 07:13:30;;;;;;;0.40;0.40;;;;;;;-1.48;100.00;100532.00;5092996;28;20028;-45
2023/12/01 07:15:56;;;;;;;0.60;0.60;;;;;;;-1.44;100.00;100536.50;5093040;28;20092;-46
2023/12/01 07:18:21;;;;;;;0.40;0.40;;;;;;;-1.41;100.00;100541.75;5093468;28;20031;-45
2023/12/01 07:20:46;;;;;;;0.60;0.60;;;;;;;-1.45;100.00;100539.78;5093322;28;20028;-45
2023/12/01 07:23:12;;;;;;;0.50;0.50;;;;;;;-1.39;100.00;100541.91;5092640;28;20023;-45
2023/12/01 07:25:37;;;;;;;0.47;0.47;;;;;;;-1.34;100.00;100546.50;5092512;28;20028;-46
2023/12/01 07:28:04;;;;;;;0.50;0.50;;;;;;;-1.36;100.00;100542.97;5093384;28;20099;-46
2023/12/01 07:30:29;;;;;;;0.50;0.50;;;;;;;-1.37;100.00;100546.28;5092804;28;20312;-46
2023/12/01 07:32:56;;;;;;;0.60;0.60;;;;;;;-1.34;100.00;100541.44;5093407;28;20112;-45
2023/12/01 07:35:22;;;;;;;0.40;0.40;;;;;;;-1.34;100.00;100546.50;5092826;28;20046;-44
2023/12/01 07:37:48;;;;;;;0.50;0.50;;;;;;;-1.35;100.00;100544.75;5092540;28;20020;-46
2023/12/01 07:40:23;;;;;;;0.50;0.50;;;;;;;-1.36;100.00;100542.09;5092838;28;20036;-45
2023/12/01 07:42:49;;;;;;;0.50;0.50;;;;;;;-1.35;100.00;100542.22;5093102;28;20166;-46
2023/12/01 07:45:17;;;;;;;0.60;0.60;;;;;;;-1.38;100.00;100539.47;5092225;28;20044;-44
2023/12/01 07:47:47;;;;;;;0.60;0.60;;;;;;;-1.39;100.00;100547.81;5093347;28;20031;-45
2023/12/01 07:50:14;;;;;;;0.47;0.47;;;;;;;-1.39;100.00;100542.75;5092066;28;20032;-45
2023/12/01 07:52:50;;;;;;;0.50;0.50;;;;;;;-1.38;100.00;100544.53;5092953;28;20028;-43
2023/12/01 07:55:16;;;;;;;0.40;0.40;;;;;;;-1.37;100.00;100546.28;5092532;28;20032;-45
2023/12/01 07:57:43;;;;;;;0.50;0.50;;;;;;;-1.35;100.00;100546.41;5092916;28;20125;-49
2023/12/01 08:00:16;;;;;;;0.43;0.43;;;;;;;-1.37;100.00;100546.28;5093062;28;20028;-46
2023/12/01 08:02:42;;;;;;;0.60;0.60;;;;;;;-1.35;100.00;100544.75;5092783;28;20051;-44
2023/12/01 08:05:13;;;;;;;0.50;0.50;;;;;;;-1.33;100.00;100537.25;5092237;28;20384;-44
2023/12/01 08:07:39;;;;;;;0.55;0.55;;;;;;;-1.30;100.00;100542.56;5093005;28;20020;-43
2023/12/01 08:10:05;;;;;;;0.50;0.50;;;;;;;-1.30;100.00;100536.59;5092849;28;20024;-43
2023/12/01 08:12:31;;;;;;;0.50;0.50;;;;;;;-1.29;100.00;100543.41;5092119;28;20051;-44
2023/12/01 08:14:56;;;;;;;0.50;0.50;;;;;;;-1.25;100.00;100540.34;5092689;28;20063;-44
2023/12/01 08:17:21;;;;;;;0.52;0.52;;;;;;;-1.22;100.00;100545.63;5092248;28;20082;-44
2023/12/01 08:19:46;;;;;;;0.60;0.60;;;;;;;-1.19;100.00;100545.84;5092057;28;20026;-43
2023/12/01 08:22:12;;;;;;;0.47;0.47;;;;;;;-1.20;100.00;100557.63;5092649;28;20078;-45
2023/12/01 08:24:38;;;;;;;0.50;0.50;;;;;;;-1.15;100.00;100560.47;5092664;28;20024;-44
2023/12/01 08:27:07;;;;;;;0.50;0.50;;;;;;;-1.15;100.00;100552.88;5092349;28;20031;-43
2023/12/01 08:29:33;;;;;;;0.55;0.55;;;;;;;-1.10;100.00;100561.66;5092425;28;20533;-43
2023/12/01 08:31:59;;;;;;;0.60;0.60;;;;;;;-1.08;100.00;100560.16;5092382;28;20023;-45
2023/12/01 08:34:25;;;;;;;0.50;0.50;;;;;;;-1.06;100.00;100562.78;5091661;28;20034;-49
2023/12/01 08:36:50;;;;;;;0.60;0.60;;;;;;;-1.04;100.00;100567.19;5093992;28;20114;-43
2023/12/01 08:39:16;;;;;;;0.50;0.50;;;;;;;-1.02;100.00;100569.81;5095622;28;20020;-44
2023/12/01 08:41:41;;;;;;;0.57;0.57;;;;;;;-1.03;100.00;100574.00;5096626;28;20028;-43
2023/12/01 08:44:06;;;;;;;0.50;0.50;;;;;;;-1.00;100.00;100570.81;5096400;28;20383;-46
2023/12/01 08:46:31;;;;;;;0.60;0.60;;;;;;;-1.02;100.00;100574.88;5095359;28;20040;-47
2023/12/01 08:48:57;;;;;;;0.60;0.60;;;;;;;-0.98;100.00;100578.50;5096335;28;20024;-47
2023/12/01 08:51:22;;;;;;;0.50;0.50;;;;;;;-0.97;100.00;100586.19;5096095;28;20287;-43
2023/12/01 08:53:47;;;;;;;0.50;0.50;;;;;;;-0.96;100.00;100584.56;5095924;28;20498;-45
2023/12/01 08:56:13;;;;;;;0.47;0.47;;;;;;;-0.95;100.00;100583.81;5096008;28;20039;-44
2023/12/01 08:58:38;;;;;;;0.50;0.50;;;;;;;-0.92;100.00;100576.41;5096240;28;20391;-44
2023/12/01 09:01:04;;;;;;;0.60;0.60;;;;;;;-0.91;100.00;100588.31;5095713;28;20039;-45
2023/12/01 09:03:29;;;;;;;0.50;0.50;;;;;;;-0.88;100.00;100580.91;5095775;28;20024;-46
2023/12/01 09:05:55;;;;;;;0.50;0.50;;;;;;;-0.86;100.00;100577.72;5096043;28;20035;-43
2023/12/01 09:08:21;;;;;;;0.50;0.50;;;;;;;-0.85;100.00;100588.75;5095409;28;20031;-44
2023/12/01 09:10:47;;;;;;;0.50;0.50;;;;;;;-0.84;100.00;100588.84;5096060;28;20028;-45
2023/12/01 09:13:12;;;;;;;0.50;0.50;;;;;;;-0.82;100.00;100594.00;5095340;28;20027;-43
2023/12/01 09:15:37;;;;;;;0.70;0.70;;;;;;;-0.81;100.00;100588.19;5095383;28;20024;-44
2023/12/01 09:18:03;;;;;;;0.50;0.50;;;;;;;-0.79;100.00;100586.63;5095671;28;20062;-44
2023/12/01 09:20:28;;;;;;;0.40;0.40;;;;;;;-0.77;100.00;100595.22;5095464;28;20345;-48
2023/12/01 09:22:53;;;;;;;0.50;0.50;;;;;;;-0.74;100.00;100597.94;5095441;28;20032;-44
2023/12/01 09:25:19;;;;;;;0.50;0.50;;;;;;;-0.69;100.00;100601.69;5095539;28;20455;-43
2023/12/01 09:27:44;;;;;;;0.40;0.40;;;;;;;-0.66;100.00;100611.16;5095619;28;20028;-45
2023/12/01 09:30:13;;;;;;;0.57;0.57;;;;;;;-0.63;100.00;100610.47;5094702;28;20437;-44
2023/12/01 09:32:39;;;;;;;0.60;0.60;;;;;;;-0.61;100.00;100611.50;5095486;28;20024;-44
2023/12/01 09:35:05;;;;;;;0.52;0.52;;;;;;;-0.57;100.00;100621.06;5095514;28;20081;-43
2023/12/01 09:37:30;;;;;;;0.50;0.50;;;;;;;-0.53;100.00;100607.84;5094420;28;20028;-45
2023/12/01 09:39:56;;;;;;;0.60;0.60;;;;;;;-0.53;100.00;100607.84;5095635;28;20039;-46
2023/12/01 09:42:23;;;;;;;0.60;0.60;;;;;;;-0.52;100.00;100612.13;5094959;28;20077;-45
2023/12/01 09:44:50;;;;;;;0.57;0.57;;;;;;;-0.48;100.00;100618.28;5094942;28;20096;-45
2023/12/01 09:47:17;;;;;;;0.60;0.60;;;;;;;-0.46;100.00;100621.81;5094572;28;20044;-47
2023/12/01 09:49:46;;;;;;;0.60;0.60;;;;;;;-0.45;100.00;100627.00;5093952;28;20137;-47
2023/12/01 09:52:11;;;;;;;0.50;0.50;;;;;;;-0.46;100.00;100625.22;5094784;28;20498;-49
2023/12/01 09:54:37;;;;;;;0.60;0.60;;;;;;;-0.39;100.00;100616.41;5094759;28;20060;-44
2023/12/01 09:57:06;;;;;;;0.60;0.60;;;;;;;-0.39;100.00;100627.44;5094326;28;20039;-46
2023/12/01 09:59:38;;;;;;;0.50;0.50;;;;;;;-0.34;100.00;100635.31;5094741;28;20495;-43
2023/12/01 10:02:04;;;;;;;0.50;0.50;;;;;;;-0.30;100.00;100642.34;5094749;28;20043;-47
2023/12/01 10:04:33;;;;;;;0.45;0.45;;;;;;;-0.36;100.00;100632.69;5094355;28;20051;-45
2023/12/01 10:07:00;;;;;;;0.57;0.57;;;;;;;-0.31;100.00;100634.66;5094777;28;20460;-46
2023/12/01 10:09:27;;;;;;;0.50;0.50;;;;;;;-0.31;100.00;100630.50;5094326;28;20112;-43
2023/12/01 10:12:09;;;;;;;0.60;0.60;;;;;;;-0.27;100.00;100634.09;5094215;28;20383;-48
2023/12/01 10:14:36;;;;;;;0.60;0.60;;;;;;;-0.27;100.00;100632.47;5094950;28;20089;-44
2023/12/01 10:17:03;;;;;;;0.40;0.40;;;;;;;-0.32;100.00;100632.88;5094513;28;20110;-46
2023/12/01 10:19:31;;;;;;;0.60;0.60;;;;;;;-0.33;100.00;100632.03;5093935;28;20028;-45
2023/12/01 10:21:57;;;;;;;0.57;0.57;;;;;;;-0.37;100.00;100635.13;5094658;28;20012;-47
2023/12/01 10:24:22;;;;;;;0.50;0.50;;;;;;;-0.35;100.00;100631.91;5094089;28;20499;-46
2023/12/01 10:26:49;;;;;;;0.47;0.47;;;;;;;-0.37;100.00;100630.94;5093817;28;20032;-45
2023/12/01 10:29:30;;;;;;;0.60;0.60;;;;;;;-0.37;100.00;100641.06;5094355;28;20034;-45
2023/12/01 10:32:11;;;;;;;0.50;0.50;;;;;;;-0.39;100.00;100631.59;5093772;28;20380;-45
2023/12/01 10:34:37;;;;;;;0.60;0.60;;;;;;;-0.34;100.00;100631.16;5094360;28;20027;-47
2023/12/01 10:37:03;;;;;;;0.60;0.60;;;;;;;-0.29;100.00;100635.66;5093832;28;20036;-45
2023/12/01 10:39:30;;;;;;;0.50;0.50;;;;;;;-0.19;100.00;100630.47;5093302;28;20095;-48
2023/12/01 10:41:57;;;;;;;0.40;0.40;;;;;;;-0.15;100.00;100634.09;5094375;28;20020;-48
2023/12/01 10:44:24;;;;;;;0.50;0.50;;;;;;;-0.07;100.00;100631.28;5093871;28;20115;-45
2023/12/01 10:46:52;;;;;;;0.60;0.60;;;;;;;-0.04;100.00;100631.50;5093462;28;20097;-47
2023/12/01 10:49:17;;;;;;;0.60;0.60;;;;;;;0.01;100.00;100634.34;5093824;28;20031;-43
2023/12/01 10:51:52;;;;;;;0.50;0.50;;;;;;;-0.07;100.00;100636.34;5093796;28;20020;-46
2023/12/01 10:54:21;;;;;;;0.50;0.50;;;;;;;-0.01;100.00;100628.31;5093519;28;20064;-44
2023/12/01 10:57:05;;;;;;;0.50;0.50;;;;;;;0.05;100.00;100627.84;5093954;28;20024;-46
2023/12/01 10:59:33;;;;;;;0.50;0.50;;;;;;;-0.05;100.00;100627.22;5093261;28;20024;-44
2023/12/01 11:02:00;;;;;;;0.50;0.50;;;;;;;-0.04;100.00;100626.44;5093257;28;20028;-48
2023/12/01 11:04:26;;;;;;;0.50;0.50;;;;;;;-0.10;100.00;100626.00;5093363;28;20813;-43
2023/12/01 11:07:29;;;;;;;0.52;0.52;;;;;;;-0.09;100.00;100632.84;5094060;28;20274;-44
2023/12/01 11:09:57;;;;;;;0.50;0.50;;;;;;;-0.15;100.00;100627.34;5093747;28;20094;-43
2023/12/01 11:13:00;;;;;;;0.50;0.50;;;;;;;-0.04;100.00;100623.00;5093028;28;20391;-45
2023/12/01 11:15:28;;;;;;;0.40;0.40;;;;;;;-0.10;100.00;100620.94;5092896;28;20039;-44